PWSweather.com
Personal Weather Stations
Station Observations
BREEJEDURP
'sGravenzande, WestlandNL

'sGravenzandeWestlandNL

Lat: 52.00095260000001, Lon: 4.174256600000035

Elevation: 3

Station Type: Davis Vantage Pro2 Plus

Latest ConditionsUpdated 11:09:00 PM GMT+01:01 Saturday, Feb 23, 2019
Currently Today's Max Today's Min Today's Average
Temperature 43.3°F6.3°C 55.2°F12.9°C 41.7°F5.4°C 47.5°F8.6°C
Dew Point 37.3°F2.9°C 45.5°F7.5°C 37.3°F2.9°C 42.8°F6.0°C
Winds 2.0 mph ESE3.2 kmh ESE 7.0 mph -11.3 kmh - - 3.3 mph 5.3 kmh
Wind Gusts 3.0 mph4.8 kmh 12.0 mph19.3 kmh - -
Humidity 79% 97% 69% 84%
Pressure 30.59 in1035.9 mb 30.64 in1037.6 mb 30.57 in1035.2 mb -
Precipitation - 0.01 in0.3 mm - -
Hour Temp Dew Point Humidity Winds Wind Gusts Pressure Precip Precip Rate Daily Precip Total
11:09 PM 43.3°F6.3°C 37.3°F2.9°C 79% 2.0 mph ESE3.2 kmh ESE 3.0 mph4.8 kmh 30.59 in1035.9 mb 0.00 in0.0 mm 0.00 in0.0 mm 0.01 in0.3 mm
11:04 PM 43.5°F6.4°C 37.5°F3.1°C 79% 1.0 mph ESE1.6 kmh ESE 2.0 mph3.2 kmh 30.59 in1035.9 mb 0.00 in0.0 mm 0.00 in0.0 mm 0.01 in0.3 mm
10:59 PM 43.5°F6.4°C 37.5°F3.1°C 79% 3.0 mph ESE4.8 kmh ESE 3.0 mph4.8 kmh 30.59 in1035.9 mb 0.00 in0.0 mm 0.00 in0.0 mm 0.01 in0.3 mm
09:09 PM 46.6°F8.1°C 39.4°F4.1°C 76% 3.0 mph ESE4.8 kmh ESE 5.0 mph8.0 kmh 30.58 in1035.6 mb 0.00 in0.0 mm 0.00 in0.0 mm 0.01 in0.3 mm
09:04 PM 46.8°F8.2°C 39.3°F4.1°C 75% 3.0 mph ESE4.8 kmh ESE 4.0 mph6.4 kmh 30.58 in1035.6 mb 0.00 in0.0 mm 0.00 in0.0 mm 0.01 in0.3 mm
08:59 PM 46.9°F8.3°C 39.8°F4.3°C 76% 4.0 mph ESE6.4 kmh ESE 7.0 mph11.3 kmh 30.58 in1035.6 mb 0.00 in0.0 mm 0.00 in0.0 mm 0.01 in0.3 mm
07:09 PM 49.6°F9.8°C 42.4°F5.8°C 76% 4.0 mph SE6.4 kmh SE 8.0 mph12.9 kmh 30.57 in1035.2 mb 0.00 in0.0 mm 0.00 in0.0 mm 0.01 in0.3 mm
07:04 PM 49.6°F9.8°C 42.4°F5.8°C 76% 5.0 mph SE8.0 kmh SE 7.0 mph11.3 kmh 30.57 in1035.2 mb 0.00 in0.0 mm 0.00 in0.0 mm 0.01 in0.3 mm
06:59 PM 49.6°F9.8°C 42.4°F5.8°C 76% 4.0 mph SE6.4 kmh SE 7.0 mph11.3 kmh 30.58 in1035.6 mb 0.00 in0.0 mm 0.00 in0.0 mm 0.01 in0.3 mm
05:09 PM 53.8°F12.1°C 44.6°F7.0°C 71% 2.0 mph ESE3.2 kmh ESE 4.0 mph6.4 kmh 30.58 in1035.6 mb 0.00 in0.0 mm 0.00 in0.0 mm 0.01 in0.3 mm
05:04 PM 53.8°F12.1°C 45.0°F7.2°C 72% 2.0 mph E3.2 kmh E 3.0 mph4.8 kmh 30.58 in1035.6 mb 0.00 in0.0 mm 0.00 in0.0 mm 0.01 in0.3 mm
04:59 PM 54.0°F12.2°C 44.8°F7.1°C 71% 4.0 mph SE6.4 kmh SE 8.0 mph12.9 kmh 30.58 in1035.6 mb 0.00 in0.0 mm 0.00 in0.0 mm 0.01 in0.3 mm
03:09 PM 55.2°F12.9°C 45.2°F7.3°C 69% 2.0 mph SE3.2 kmh SE 4.0 mph6.4 kmh 30.59 in1035.9 mb 0.00 in0.0 mm 0.00 in0.0 mm 0.01 in0.3 mm
03:04 PM 54.9°F12.7°C 45.3°F7.4°C 70% 4.0 mph SSE6.4 kmh SSE 7.0 mph11.3 kmh 30.59 in1035.9 mb 0.00 in0.0 mm 0.00 in0.0 mm 0.01 in0.3 mm
02:59 PM 54.7°F12.6°C 45.1°F7.3°C 70% 5.0 mph ESE8.0 kmh ESE 7.0 mph11.3 kmh 30.59 in1035.9 mb 0.00 in0.0 mm 0.00 in0.0 mm 0.01 in0.3 mm
01:09 PM 53.4°F11.9°C 45.3°F7.4°C 74% 5.0 mph ESE8.0 kmh ESE 9.0 mph14.5 kmh 30.62 in1036.9 mb 0.00 in0.0 mm 0.00 in0.0 mm 0.01 in0.3 mm
01:04 PM 53.2°F11.8°C 45.5°F7.5°C 75% 4.0 mph SE6.4 kmh SE 8.0 mph12.9 kmh 30.62 in1036.9 mb 0.00 in0.0 mm 0.00 in0.0 mm 0.01 in0.3 mm
12:59 PM 53.1°F11.7°C 45.4°F7.4°C 75% 5.0 mph SE8.0 kmh SE 7.0 mph11.3 kmh 30.62 in1036.9 mb 0.00 in0.0 mm 0.00 in0.0 mm 0.01 in0.3 mm
11:09 AM 49.5°F9.7°C 45.1°F7.3°C 85% 5.0 mph ESE8.0 kmh ESE 7.0 mph11.3 kmh 30.62 in1036.9 mb 0.00 in0.0 mm 0.00 in0.0 mm 0.01 in0.3 mm
11:04 AM 49.5°F9.7°C 45.1°F7.3°C 85% 7.0 mph ESE11.3 kmh ESE 9.0 mph14.5 kmh 30.62 in1036.9 mb 0.00 in0.0 mm 0.00 in0.0 mm 0.01 in0.3 mm
10:59 AM 49.3°F9.6°C 45.0°F7.2°C 85% 6.0 mph ESE9.7 kmh ESE 9.0 mph14.5 kmh 30.62 in1036.9 mb 0.00 in0.0 mm 0.00 in0.0 mm 0.01 in0.3 mm
09:09 AM 43.2°F6.2°C 42.4°F5.8°C 97% 4.0 mph ESE6.4 kmh ESE 8.0 mph12.9 kmh 30.63 in1037.3 mb 0.00 in0.0 mm 0.00 in0.0 mm 0.01 in0.3 mm
09:05 AM 43.0°F6.1°C 42.2°F5.7°C 97% 7.0 mph ESE11.3 kmh ESE 12.0 mph19.3 kmh 30.63 in1037.3 mb 0.00 in0.0 mm 0.00 in0.0 mm 0.01 in0.3 mm
08:59 AM 42.6°F5.9°C 41.8°F5.4°C 97% 4.0 mph ESE6.4 kmh ESE 8.0 mph12.9 kmh 30.63 in1037.3 mb 0.00 in0.0 mm 0.00 in0.0 mm 0.01 in0.3 mm
07:09 AM 41.7°F5.4°C 40.9°F4.9°C 97% 3.0 mph ESE4.8 kmh ESE 5.0 mph8.0 kmh 30.63 in1037.3 mb 0.00 in0.0 mm 0.00 in0.0 mm 0.00 in0.0 mm
07:04 AM 41.9°F5.5°C 41.1°F5.1°C 97% 3.0 mph SSE4.8 kmh SSE 4.0 mph6.4 kmh 30.63 in1037.3 mb 0.00 in0.0 mm 0.00 in0.0 mm 0.00 in0.0 mm
06:59 AM 41.9°F5.5°C 41.1°F5.1°C 97% 3.0 mph E4.8 kmh E 6.0 mph9.7 kmh 30.63 in1037.3 mb 0.00 in0.0 mm 0.00 in0.0 mm 0.00 in0.0 mm
05:09 AM 42.8°F6.0°C 42.0°F5.6°C 97% Calm Calm -- 30.63 in1037.3 mb 0.00 in0.0 mm 0.00 in0.0 mm 0.00 in0.0 mm
05:04 AM 43.0°F6.1°C 42.2°F5.7°C 97% 2.0 mph E3.2 kmh E 3.0 mph4.8 kmh 30.63 in1037.3 mb 0.00 in0.0 mm 0.00 in0.0 mm 0.00 in0.0 mm
04:59 AM 43.2°F6.2°C 42.4°F5.8°C 97% 2.0 mph E3.2 kmh E 3.0 mph4.8 kmh 30.63 in1037.3 mb 0.00 in0.0 mm 0.00 in0.0 mm 0.00 in0.0 mm
03:09 AM 44.1°F6.7°C 43.0°F6.1°C 96% 1.0 mph SE1.6 kmh SE 2.0 mph3.2 kmh 30.63 in1037.3 mb 0.00 in0.0 mm 0.00 in0.0 mm 0.00 in0.0 mm
03:04 AM 44.2°F6.8°C 43.2°F6.2°C 96% 1.0 mph SE1.6 kmh SE 2.0 mph3.2 kmh 30.64 in1037.6 mb 0.00 in0.0 mm 0.00 in0.0 mm 0.00 in0.0 mm
02:59 AM 44.4°F6.9°C 43.4°F6.3°C 96% 2.0 mph SE3.2 kmh SE 3.0 mph4.8 kmh 30.64 in1037.6 mb 0.00 in0.0 mm 0.00 in0.0 mm 0.00 in0.0 mm
01:09 AM 46.4°F8.0°C 44.8°F7.1°C 94% 3.0 mph SE4.8 kmh SE 6.0 mph9.7 kmh 30.64 in1037.6 mb 0.00 in0.0 mm 0.00 in0.0 mm 0.00 in0.0 mm
01:04 AM 46.6°F8.1°C 44.9°F7.2°C 94% 2.0 mph ESE3.2 kmh ESE 3.0 mph4.8 kmh 30.64 in1037.6 mb 0.00 in0.0 mm 0.00 in0.0 mm 0.00 in0.0 mm
12:59 AM 46.6°F8.1°C 44.9°F7.2°C 94% 2.0 mph SSE3.2 kmh SSE 4.0 mph6.4 kmh 30.64 in1037.6 mb 0.00 in0.0 mm 0.00 in0.0 mm 0.00 in0.0 mm